sensor_id;sensor_type;location;lat;lon;timestamp;temperature;humidity
9808;DHT22;4943;52.550;13.462;2022-08-03T00:01:43;23.80;81.10
9808;DHT22;4943;52.550;13.462;2022-08-03T00:04:13;23.80;81.10
9808;DHT22;4943;52.550;13.462;2022-08-03T00:06:41;23.80;81.10
9808;DHT22;4943;52.550;13.462;2022-08-03T00:09:10;23.80;81.10
9808;DHT22;4943;52.550;13.462;2022-08-03T00:11:38;23.80;81.10
9808;DHT22;4943;52.550;13.462;2022-08-03T00:14:07;23.80;81.10
9808;DHT22;4943;52.550;13.462;2022-08-03T00:16:35;23.80;81.20
9808;DHT22;4943;52.550;13.462;2022-08-03T00:19:03;23.80;81.30
9808;DHT22;4943;52.550;13.462;2022-08-03T00:21:33;23.80;81.30
9808;DHT22;4943;52.550;13.462;2022-08-03T00:24:01;23.80;81.40
9808;DHT22;4943;52.550;13.462;2022-08-03T00:26:29;23.90;81.40
9808;DHT22;4943;52.550;13.462;2022-08-03T00:28:58;23.80;81.40
9808;DHT22;4943;52.550;13.462;2022-08-03T00:31:26;23.80;81.50
9808;DHT22;4943;52.550;13.462;2022-08-03T00:34:14;23.80;81.50
9808;DHT22;4943;52.550;13.462;2022-08-03T00:36:54;23.80;81.60
9808;DHT22;4943;52.550;13.462;2022-08-03T00:39:22;23.80;81.60
9808;DHT22;4943;52.550;13.462;2022-08-03T00:41:50;23.80;81.70
9808;DHT22;4943;52.550;13.462;2022-08-03T00:44:18;23.80;82.40
9808;DHT22;4943;52.550;13.462;2022-08-03T00:46:46;23.80;81.70
9808;DHT22;4943;52.550;13.462;2022-08-03T00:49:14;23.80;81.80
9808;DHT22;4943;52.550;13.462;2022-08-03T00:51:43;23.80;81.90
9808;DHT22;4943;52.550;13.462;2022-08-03T00:54:12;23.80;82.10
9808;DHT22;4943;52.550;13.462;2022-08-03T00:56:42;23.80;82.30
9808;DHT22;4943;52.550;13.462;2022-08-03T00:59:26;23.70;82.30
9808;DHT22;4943;52.550;13.462;2022-08-03T01:01:55;23.80;82.60
9808;DHT22;4943;52.550;13.462;2022-08-03T01:04:23;23.70;82.80
9808;DHT22;4943;52.550;13.462;2022-08-03T01:06:58;23.70;83.00
9808;DHT22;4943;52.550;13.462;2022-08-03T01:09:36;23.70;83.30
9808;DHT22;4943;52.550;13.462;2022-08-03T01:12:09;23.70;83.50
9808;DHT22;4943;52.550;13.462;2022-08-03T01:14:44;23.60;83.60
9808;DHT22;4943;52.550;13.462;2022-08-03T01:17:19;23.60;83.70
9808;DHT22;4943;52.550;13.462;2022-08-03T01:19:55;23.60;83.70
9808;DHT22;4943;52.550;13.462;2022-08-03T01:22:39;23.60;83.70
9808;DHT22;4943;52.550;13.462;2022-08-03T01:25:24;23.60;83.80
9808;DHT22;4943;52.550;13.462;2022-08-03T01:28:05;23.50;83.80
9808;DHT22;4943;52.550;13.462;2022-08-03T01:30:40;23.50;83.90
9808;DHT22;4943;52.550;13.462;2022-08-03T01:33:14;23.50;84.00
9808;DHT22;4943;52.550;13.462;2022-08-03T01:35:47;23.50;84.10
9808;DHT22;4943;52.550;13.462;2022-08-03T01:38:21;23.50;84.10
9808;DHT22;4943;52.550;13.462;2022-08-03T01:40:51;23.50;84.10
9808;DHT22;4943;52.550;13.462;2022-08-03T01:43:24;23.50;84.10
9808;DHT22;4943;52.550;13.462;2022-08-03T01:46:16;23.60;84.30
9808;DHT22;4943;52.550;13.462;2022-08-03T01:48:46;23.60;84.40
9808;DHT22;4943;52.550;13.462;2022-08-03T01:51:16;23.60;84.40
9808;DHT22;4943;52.550;13.462;2022-08-03T01:53:47;23.60;84.40
9808;DHT22;4943;52.550;13.462;2022-08-03T01:56:18;23.60;84.40
9808;DHT22;4943;52.550;13.462;2022-08-03T01:58:47;23.60;84.40
9808;DHT22;4943;52.550;13.462;2022-08-03T02:01:20;23.50;85.20
9808;DHT22;4943;52.550;13.462;2022-08-03T02:03:49;23.50;84.60
9808;DHT22;4943;52.550;13.462;2022-08-03T02:06:29;23.50;85.40
9808;DHT22;4943;52.550;13.462;2022-08-03T02:09:19;23.50;84.80
9808;DHT22;4943;52.550;13.462;2022-08-03T02:11:48;23.50;84.90
9808;DHT22;4943;52.550;13.462;2022-08-03T02:14:19;23.50;85.00
9808;DHT22;4943;52.550;13.462;2022-08-03T02:16:50;23.50;85.00
9808;DHT22;4943;52.550;13.462;2022-08-03T02:19:18;23.50;85.10
9808;DHT22;4943;52.550;13.462;2022-08-03T02:21:48;23.50;85.10
9808;DHT22;4943;52.550;13.462;2022-08-03T02:24:27;23.50;85.20
9808;DHT22;4943;52.550;13.462;2022-08-03T02:26:56;23.50;85.30
9808;DHT22;4943;52.550;13.462;2022-08-03T02:29:27;23.50;85.30
9808;DHT22;4943;52.550;13.462;2022-08-03T02:32:09;23.50;85.30
9808;DHT22;4943;52.550;13.462;2022-08-03T02:34:40;23.50;85.50
9808;DHT22;4943;52.550;13.462;2022-08-03T02:37:11;23.50;85.50
9808;DHT22;4943;52.550;13.462;2022-08-03T02:39:40;23.50;85.50
9808;DHT22;4943;52.550;13.462;2022-08-03T02:42:11;23.50;85.60
9808;DHT22;4943;52.550;13.462;2022-08-03T02:44:41;23.50;85.60
9808;DHT22;4943;52.550;13.462;2022-08-03T02:47:16;23.50;85.60
9808;DHT22;4943;52.550;13.462;2022-08-03T02:49:48;23.50;85.60
9808;DHT22;4943;52.550;13.462;2022-08-03T02:52:20;23.50;85.60
9808;DHT22;4943;52.550;13.462;2022-08-03T02:54:52;23.50;85.60
9808;DHT22;4943;52.550;13.462;2022-08-03T02:57:22;23.60;85.70
9808;DHT22;4943;52.550;13.462;2022-08-03T02:59:52;23.50;85.60
9808;DHT22;4943;52.550;13.462;2022-08-03T03:02:23;23.50;85.70
9808;DHT22;4943;52.550;13.462;2022-08-03T03:04:52;23.50;85.60
9808;DHT22;4943;52.550;13.462;2022-08-03T03:07:42;23.50;85.60
9808;DHT22;4943;52.550;13.462;2022-08-03T03:10:19;23.50;85.60
9808;DHT22;4943;52.550;13.462;2022-08-03T03:12:49;23.50;86.30
9808;DHT22;4943;52.550;13.462;2022-08-03T03:15:18;23.50;85.50
9808;DHT22;4943;52.550;13.462;2022-08-03T03:17:48;23.50;85.40
9808;DHT22;4943;52.550;13.462;2022-08-03T03:20:17;23.50;85.30
9808;DHT22;4943;52.550;13.462;2022-08-03T03:22:57;23.50;85.30
9808;DHT22;4943;52.550;13.462;2022-08-03T03:25:26;23.40;85.10
9808;DHT22;4943;52.550;13.462;2022-08-03T03:27:55;23.40;85.10
9808;DHT22;4943;52.550;13.462;2022-08-03T03:30:24;23.40;84.90
9808;DHT22;4943;52.550;13.462;2022-08-03T03:32:54;23.40;84.90
9808;DHT22;4943;52.550;13.462;2022-08-03T03:35:24;23.40;85.10
9808;DHT22;4943;52.550;13.462;2022-08-03T03:37:53;23.30;85.00
9808;DHT22;4943;52.550;13.462;2022-08-03T03:40:21;23.30;85.00
9808;DHT22;4943;52.550;13.462;2022-08-03T03:42:49;23.30;85.10
9808;DHT22;4943;52.550;13.462;2022-08-03T03:45:18;23.20;85.10
9808;DHT22;4943;52.550;13.462;2022-08-03T03:47:47;23.20;85.20
9808;DHT22;4943;52.550;13.462;2022-08-03T03:50:18;23.20;85.20
9808;DHT22;4943;52.550;13.462;2022-08-03T03:52:48;23.20;86.00
9808;DHT22;4943;52.550;13.462;2022-08-03T03:55:17;23.10;85.40
9808;DHT22;4943;52.550;13.462;2022-08-03T03:57:45;23.20;85.60
9808;DHT22;4943;52.550;13.462;2022-08-03T04:00:15;23.20;85.70
9808;DHT22;4943;52.550;13.462;2022-08-03T04:02:44;23.20;85.80
9808;DHT22;4943;52.550;13.462;2022-08-03T04:05:13;23.20;85.80
9808;DHT22;4943;52.550;13.462;2022-08-03T04:08:03;23.20;85.90
9808;DHT22;4943;52.550;13.462;2022-08-03T04:11:01;23.20;86.00
9808;DHT22;4943;52.550;13.462;2022-08-03T04:13:33;23.20;86.20
9808;DHT22;4943;52.550;13.462;2022-08-03T04:16:03;23.20;86.30
9808;DHT22;4943;52.550;13.462;2022-08-03T04:18:33;23.20;86.40
9808;DHT22;4943;52.550;13.462;2022-08-03T04:21:06;23.20;86.50
9808;DHT22;4943;52.550;13.462;2022-08-03T04:23:40;23.30;86.60
9808;DHT22;4943;52.550;13.462;2022-08-03T04:26:12;23.30;86.60
9808;DHT22;4943;52.550;13.462;2022-08-03T04:28:43;23.40;86.60
9808;DHT22;4943;52.550;13.462;2022-08-03T04:31:12;23.40;86.50
9808;DHT22;4943;52.550;13.462;2022-08-03T04:33:43;23.40;86.60
9808;DHT22;4943;52.550;13.462;2022-08-03T04:36:16;23.40;86.70
9808;DHT22;4943;52.550;13.462;2022-08-03T04:38:54;23.40;86.70
9808;DHT22;4943;52.550;13.462;2022-08-03T04:41:24;23.40;86.90
9808;DHT22;4943;52.550;13.462;2022-08-03T04:43:55;23.40;86.90
9808;DHT22;4943;52.550;13.462;2022-08-03T04:46:27;23.50;86.90
9808;DHT22;4943;52.550;13.462;2022-08-03T04:48:56;23.50;87.00
9808;DHT22;4943;52.550;13.462;2022-08-03T04:51:25;23.50;87.10
9808;DHT22;4943;52.550;13.462;2022-08-03T04:53:55;23.60;87.20
9808;DHT22;4943;52.550;13.462;2022-08-03T04:56:23;23.60;87.10
9808;DHT22;4943;52.550;13.462;2022-08-03T04:58:51;23.60;87.00
9808;DHT22;4943;52.550;13.462;2022-08-03T05:01:19;23.70;87.10
9808;DHT22;4943;52.550;13.462;2022-08-03T05:03:48;23.70;87.10
9808;DHT22;4943;52.550;13.462;2022-08-03T05:06:17;23.80;87.00
9808;DHT22;4943;52.550;13.462;2022-08-03T05:08:50;23.80;87.00
9808;DHT22;4943;52.550;13.462;2022-08-03T05:11:20;23.80;86.90
9808;DHT22;4943;52.550;13.462;2022-08-03T05:13:48;23.90;86.80
9808;DHT22;4943;52.550;13.462;2022-08-03T05:16:17;23.90;86.80
9808;DHT22;4943;52.550;13.462;2022-08-03T05:18:45;24.00;86.70
9808;DHT22;4943;52.550;13.462;2022-08-03T05:21:13;24.00;86.60
9808;DHT22;4943;52.550;13.462;2022-08-03T05:23:42;24.10;86.40
9808;DHT22;4943;52.550;13.462;2022-08-03T05:26:11;24.10;86.20
9808;DHT22;4943;52.550;13.462;2022-08-03T05:28:40;24.10;86.80
9808;DHT22;4943;52.550;13.462;2022-08-03T05:31:17;24.20;85.90
9808;DHT22;4943;52.550;13.462;2022-08-03T05:33:45;24.20;85.80
9808;DHT22;4943;52.550;13.462;2022-08-03T05:36:15;24.20;85.60
9808;DHT22;4943;52.550;13.462;2022-08-03T05:38:43;24.30;85.50
9808;DHT22;4943;52.550;13.462;2022-08-03T05:41:11;24.30;85.10
9808;DHT22;4943;52.550;13.462;2022-08-03T05:43:51;24.30;84.90
9808;DHT22;4943;52.550;13.462;2022-08-03T05:46:20;24.40;84.80
9808;DHT22;4943;52.550;13.462;2022-08-03T05:48:49;24.40;84.60
9808;DHT22;4943;52.550;13.462;2022-08-03T05:51:17;24.50;84.40
9808;DHT22;4943;52.550;13.462;2022-08-03T05:53:45;24.50;84.20
9808;DHT22;4943;52.550;13.462;2022-08-03T05:56:13;24.60;84.10
9808;DHT22;4943;52.550;13.462;2022-08-03T05:58:44;24.60;84.00
9808;DHT22;4943;52.550;13.462;2022-08-03T06:01:15;24.60;83.90
9808;DHT22;4943;52.550;13.462;2022-08-03T06:03:43;24.70;83.80
9808;DHT22;4943;52.550;13.462;2022-08-03T06:06:12;24.70;83.60
9808;DHT22;4943;52.550;13.462;2022-08-03T06:08:41;24.80;83.50
9808;DHT22;4943;52.550;13.462;2022-08-03T06:11:09;24.80;83.20
9808;DHT22;4943;52.550;13.462;2022-08-03T06:13:38;24.90;83.20
9808;DHT22;4943;52.550;13.462;2022-08-03T06:16:07;24.90;82.80
9808;DHT22;4943;52.550;13.462;2022-08-03T06:18:37;25.00;82.60
9808;DHT22;4943;52.550;13.462;2022-08-03T06:21:06;25.00;81.90
9808;DHT22;4943;52.550;13.462;2022-08-03T06:23:43;25.00;81.60
9808;DHT22;4943;52.550;13.462;2022-08-03T06:26:22;25.10;81.60
9808;DHT22;4943;52.550;13.462;2022-08-03T06:28:50;25.20;81.60
9808;DHT22;4943;52.550;13.462;2022-08-03T06:31:20;25.20;81.40
9808;DHT22;4943;52.550;13.462;2022-08-03T06:33:51;25.20;81.10
9808;DHT22;4943;52.550;13.462;2022-08-03T06:36:39;25.30;80.90
9808;DHT22;4943;52.550;13.462;2022-08-03T06:39:07;25.30;80.40
9808;DHT22;4943;52.550;13.462;2022-08-03T06:41:35;25.40;80.30
9808;DHT22;4943;52.550;13.462;2022-08-03T06:44:10;25.40;80.10
9808;DHT22;4943;52.550;13.462;2022-08-03T06:46:39;25.50;80.10
9808;DHT22;4943;52.550;13.462;2022-08-03T06:49:09;25.60;80.20
9808;DHT22;4943;52.550;13.462;2022-08-03T06:51:37;25.60;80.00
9808;DHT22;4943;52.550;13.462;2022-08-03T06:54:26;25.60;79.90
9808;DHT22;4943;52.550;13.462;2022-08-03T06:56:59;25.70;79.80
9808;DHT22;4943;52.550;13.462;2022-08-03T06:59:27;25.70;79.80
9808;DHT22;4943;52.550;13.462;2022-08-03T07:02:15;25.80;79.70
9808;DHT22;4943;52.550;13.462;2022-08-03T07:04:46;25.80;79.70
9808;DHT22;4943;52.550;13.462;2022-08-03T07:07:15;25.90;79.70
9808;DHT22;4943;52.550;13.462;2022-08-03T07:09:43;25.90;79.30
9808;DHT22;4943;52.550;13.462;2022-08-03T07:12:24;26.00;79.30
9808;DHT22;4943;52.550;13.462;2022-08-03T07:14:52;26.00;79.30
9808;DHT22;4943;52.550;13.462;2022-08-03T07:17:26;26.00;79.30
9808;DHT22;4943;52.550;13.462;2022-08-03T07:19:56;26.10;79.10
9808;DHT22;4943;52.550;13.462;2022-08-03T07:22:24;26.20;78.90
9808;DHT22;4943;52.550;13.462;2022-08-03T07:24:53;26.20;78.80
9808;DHT22;4943;52.550;13.462;2022-08-03T07:27:21;26.30;78.40
9808;DHT22;4943;52.550;13.462;2022-08-03T07:29:49;26.30;78.50
9808;DHT22;4943;52.550;13.462;2022-08-03T07:32:17;26.30;78.30
9808;DHT22;4943;52.550;13.462;2022-08-03T07:34:46;26.40;78.30
9808;DHT22;4943;52.550;13.462;2022-08-03T07:37:15;26.50;77.90
9808;DHT22;4943;52.550;13.462;2022-08-03T07:39:43;26.50;78.00
9808;DHT22;4943;52.550;13.462;2022-08-03T07:42:11;26.50;77.90
9808;DHT22;4943;52.550;13.462;2022-08-03T07:44:40;26.50;77.40
9808;DHT22;4943;52.550;13.462;2022-08-03T07:47:08;26.60;77.60
9808;DHT22;4943;52.550;13.462;2022-08-03T07:49:48;26.60;77.50
9808;DHT22;4943;52.550;13.462;2022-08-03T07:52:18;26.70;77.60
9808;DHT22;4943;52.550;13.462;2022-08-03T07:55:04;26.70;77.30
9808;DHT22;4943;52.550;13.462;2022-08-03T07:57:33;26.80;77.30
9808;DHT22;4943;52.550;13.462;2022-08-03T08:00:03;26.80;77.30
9808;DHT22;4943;52.550;13.462;2022-08-03T08:02:32;26.90;77.30
9808;DHT22;4943;52.550;13.462;2022-08-03T08:05:00;26.90;77.30
9808;DHT22;4943;52.550;13.462;2022-08-03T08:07:33;26.90;77.10
9808;DHT22;4943;52.550;13.462;2022-08-03T08:10:01;27.00;77.20
9808;DHT22;4943;52.550;13.462;2022-08-03T08:12:29;27.10;77.10
9808;DHT22;4943;52.550;13.462;2022-08-03T08:14:57;27.10;77.10
9808;DHT22;4943;52.550;13.462;2022-08-03T08:17:26;27.20;77.00
9808;DHT22;4943;52.550;13.462;2022-08-03T08:19:54;27.20;76.70
9808;DHT22;4943;52.550;13.462;2022-08-03T08:22:23;27.30;76.70
9808;DHT22;4943;52.550;13.462;2022-08-03T08:24:58;27.30;76.30
9808;DHT22;4943;52.550;13.462;2022-08-03T08:27:27;27.30;75.70
9808;DHT22;4943;52.550;13.462;2022-08-03T08:30:17;27.40;75.60
9808;DHT22;4943;52.550;13.462;2022-08-03T08:32:46;27.40;75.20
9808;DHT22;4943;52.550;13.462;2022-08-03T08:35:15;27.40;75.10
9808;DHT22;4943;52.550;13.462;2022-08-03T08:37:43;27.50;74.60
9808;DHT22;4943;52.550;13.462;2022-08-03T08:40:20;27.50;74.40
9808;DHT22;4943;52.550;13.462;2022-08-03T08:42:49;27.60;74.30
9808;DHT22;4943;52.550;13.462;2022-08-03T08:45:25;27.60;74.30
9808;DHT22;4943;52.550;13.462;2022-08-03T08:47:54;27.70;74.60
9808;DHT22;4943;52.550;13.462;2022-08-03T08:50:31;27.70;74.40
9808;DHT22;4943;52.550;13.462;2022-08-03T08:53:01;27.80;74.50
9808;DHT22;4943;52.550;13.462;2022-08-03T08:55:32;27.90;74.50
9808;DHT22;4943;52.550;13.462;2022-08-03T08:58:21;27.90;74.10
9808;DHT22;4943;52.550;13.462;2022-08-03T09:00:50;28.00;73.70
9808;DHT22;4943;52.550;13.462;2022-08-03T09:03:18;28.00;73.40
9808;DHT22;4943;52.550;13.462;2022-08-03T09:05:59;28.00;73.50
9808;DHT22;4943;52.550;13.462;2022-08-03T09:08:29;28.10;73.50
9808;DHT22;4943;52.550;13.462;2022-08-03T09:10:59;28.10;73.20
9808;DHT22;4943;52.550;13.462;2022-08-03T09:13:27;28.10;73.10
9808;DHT22;4943;52.550;13.462;2022-08-03T09:16:12;28.20;73.00
9808;DHT22;4943;52.550;13.462;2022-08-03T09:18:42;28.20;73.10
9808;DHT22;4943;52.550;13.462;2022-08-03T09:21:15;28.20;73.00
9808;DHT22;4943;52.550;13.462;2022-08-03T09:23:58;28.30;73.00
9808;DHT22;4943;52.550;13.462;2022-08-03T09:26:32;28.30;72.90
9808;DHT22;4943;52.550;13.462;2022-08-03T09:29:03;28.40;72.30
9808;DHT22;4943;52.550;13.462;2022-08-03T09:31:40;28.40;72.30
9808;DHT22;4943;52.550;13.462;2022-08-03T09:34:13;28.40;72.30
9808;DHT22;4943;52.550;13.462;2022-08-03T09:36:42;28.40;72.80
9808;DHT22;4943;52.550;13.462;2022-08-03T09:39:13;28.50;72.00
9808;DHT22;4943;52.550;13.462;2022-08-03T09:41:46;28.50;71.70
9808;DHT22;4943;52.550;13.462;2022-08-03T09:44:14;28.50;71.60
9808;DHT22;4943;52.550;13.462;2022-08-03T09:46:53;28.60;71.60
9808;DHT22;4943;52.550;13.462;2022-08-03T09:49:23;28.60;71.80
9808;DHT22;4943;52.550;13.462;2022-08-03T09:51:51;28.60;71.80
9808;DHT22;4943;52.550;13.462;2022-08-03T09:54:40;28.70;71.20
9808;DHT22;4943;52.550;13.462;2022-08-03T09:57:21;28.70;70.90
9808;DHT22;4943;52.550;13.462;2022-08-03T09:59:50;28.80;71.00
9808;DHT22;4943;52.550;13.462;2022-08-03T10:02:31;28.80;70.80
9808;DHT22;4943;52.550;13.462;2022-08-03T10:05:00;28.90;70.70
9808;DHT22;4943;52.550;13.462;2022-08-03T10:07:28;28.90;70.60
9808;DHT22;4943;52.550;13.462;2022-08-03T10:09:58;28.90;70.40
9808;DHT22;4943;52.550;13.462;2022-08-03T10:12:48;29.00;70.60
9808;DHT22;4943;52.550;13.462;2022-08-03T10:15:16;29.00;70.80
9808;DHT22;4943;52.550;13.462;2022-08-03T10:18:05;29.00;70.70
9808;DHT22;4943;52.550;13.462;2022-08-03T10:20:36;29.10;70.60
9808;DHT22;4943;52.550;13.462;2022-08-03T10:23:07;29.20;71.30
9808;DHT22;4943;52.550;13.462;2022-08-03T10:25:37;29.20;70.30
9808;DHT22;4943;52.550;13.462;2022-08-03T10:28:11;29.30;70.20
9808;DHT22;4943;52.550;13.462;2022-08-03T10:30:40;29.30;69.80
9808;DHT22;4943;52.550;13.462;2022-08-03T10:33:16;29.30;69.80
9808;DHT22;4943;52.550;13.462;2022-08-03T10:36:06;29.40;70.50
9808;DHT22;4943;52.550;13.462;2022-08-03T10:38:39;29.40;69.60
9808;DHT22;4943;52.550;13.462;2022-08-03T10:41:08;29.40;69.50
9808;DHT22;4943;52.550;13.462;2022-08-03T10:43:44;29.40;70.20
9808;DHT22;4943;52.550;13.462;2022-08-03T10:46:15;29.50;69.40
9808;DHT22;4943;52.550;13.462;2022-08-03T10:48:44;29.60;69.30
9808;DHT22;4943;52.550;13.462;2022-08-03T10:51:13;29.70;69.00
9808;DHT22;4943;52.550;13.462;2022-08-03T10:53:42;29.70;69.00
9808;DHT22;4943;52.550;13.462;2022-08-03T10:56:39;29.70;68.70
9808;DHT22;4943;52.550;13.462;2022-08-03T11:00:00;29.70;68.70
9808;DHT22;4943;52.550;13.462;2022-08-03T11:03:03;29.60;68.80
9808;DHT22;4943;52.550;13.462;2022-08-03T11:05:34;29.60;68.60
9808;DHT22;4943;52.550;13.462;2022-08-03T11:08:23;29.70;68.90
9808;DHT22;4943;52.550;13.462;2022-08-03T11:10:52;29.70;68.60
9808;DHT22;4943;52.550;13.462;2022-08-03T11:13:22;29.70;68.50
9808;DHT22;4943;52.550;13.462;2022-08-03T11:15:55;29.80;68.80
9808;DHT22;4943;52.550;13.462;2022-08-03T11:18:28;29.80;68.80
9808;DHT22;4943;52.550;13.462;2022-08-03T11:20:58;29.90;68.50
9808;DHT22;4943;52.550;13.462;2022-08-03T11:23:41;30.00;68.60
9808;DHT22;4943;52.550;13.462;2022-08-03T11:26:30;30.10;68.40
9808;DHT22;4943;52.550;13.462;2022-08-03T11:29:26;30.20;68.10
9808;DHT22;4943;52.550;13.462;2022-08-03T11:31:56;30.30;67.60
9808;DHT22;4943;52.550;13.462;2022-08-03T11:34:25;30.30;67.20
9808;DHT22;4943;52.550;13.462;2022-08-03T11:37:22;30.30;67.50
9808;DHT22;4943;52.550;13.462;2022-08-03T11:39:57;30.40;67.60
9808;DHT22;4943;52.550;13.462;2022-08-03T11:42:41;30.40;67.20
9808;DHT22;4943;52.550;13.462;2022-08-03T11:45:14;30.50;67.00
9808;DHT22;4943;52.550;13.462;2022-08-03T11:47:43;30.50;66.90
9808;DHT22;4943;52.550;13.462;2022-08-03T11:50:17;30.60;66.90
9808;DHT22;4943;52.550;13.462;2022-08-03T11:52:48;30.70;66.90
9808;DHT22;4943;52.550;13.462;2022-08-03T11:55:18;30.80;66.90
9808;DHT22;4943;52.550;13.462;2022-08-03T11:57:48;30.80;66.90
9808;DHT22;4943;52.550;13.462;2022-08-03T12:00:36;30.90;66.80
9808;DHT22;4943;52.550;13.462;2022-08-03T12:03:10;30.90;66.50
9808;DHT22;4943;52.550;13.462;2022-08-03T12:05:43;30.90;66.50
9808;DHT22;4943;52.550;13.462;2022-08-03T12:08:30;31.00;66.70
9808;DHT22;4943;52.550;13.462;2022-08-03T12:11:00;31.10;66.50
9808;DHT22;4943;52.550;13.462;2022-08-03T12:13:37;31.10;65.60
9808;DHT22;4943;52.550;13.462;2022-08-03T12:16:27;31.00;65.70
9808;DHT22;4943;52.550;13.462;2022-08-03T12:18:59;31.00;65.50
9808;DHT22;4943;52.550;13.462;2022-08-03T12:21:28;31.00;65.90
9808;DHT22;4943;52.550;13.462;2022-08-03T12:23:57;31.00;65.20
9808;DHT22;4943;52.550;13.462;2022-08-03T12:26:27;31.00;65.00
9808;DHT22;4943;52.550;13.462;2022-08-03T12:28:55;31.00;65.20
9808;DHT22;4943;52.550;13.462;2022-08-03T12:31:28;31.00;65.60
9808;DHT22;4943;52.550;13.462;2022-08-03T12:34:00;31.10;65.70
9808;DHT22;4943;52.550;13.462;2022-08-03T12:36:32;31.20;65.80
9808;DHT22;4943;52.550;13.462;2022-08-03T12:39:03;31.30;65.80
9808;DHT22;4943;52.550;13.462;2022-08-03T12:41:33;31.40;66.00
9808;DHT22;4943;52.550;13.462;2022-08-03T12:44:02;31.40;65.20
9808;DHT22;4943;52.550;13.462;2022-08-03T12:46:33;31.50;65.50
9808;DHT22;4943;52.550;13.462;2022-08-03T12:49:11;31.50;65.50
9808;DHT22;4943;52.550;13.462;2022-08-03T12:51:56;31.60;65.20
9808;DHT22;4943;52.550;13.462;2022-08-03T12:54:29;31.60;65.00
9808;DHT22;4943;52.550;13.462;2022-08-03T12:57:00;31.60;64.70
9808;DHT22;4943;52.550;13.462;2022-08-03T12:59:30;31.60;64.70
9808;DHT22;4943;52.550;13.462;2022-08-03T13:02:13;31.60;65.00
9808;DHT22;4943;52.550;13.462;2022-08-03T13:04:45;31.60;65.40
9808;DHT22;4943;52.550;13.462;2022-08-03T13:07:15;31.60;65.30
9808;DHT22;4943;52.550;13.462;2022-08-03T13:09:46;31.70;65.10
9808;DHT22;4943;52.550;13.462;2022-08-03T13:12:16;31.70;64.90
9808;DHT22;4943;52.550;13.462;2022-08-03T13:14:46;31.70;64.90
9808;DHT22;4943;52.550;13.462;2022-08-03T13:17:15;31.90;65.10
9808;DHT22;4943;52.550;13.462;2022-08-03T13:19:46;31.90;64.80
9808;DHT22;4943;52.550;13.462;2022-08-03T13:22:15;32.00;64.90
9808;DHT22;4943;52.550;13.462;2022-08-03T13:24:45;32.10;65.50
9808;DHT22;4943;52.550;13.462;2022-08-03T13:27:14;32.10;64.70
9808;DHT22;4943;52.550;13.462;2022-08-03T13:30:02;32.20;64.90
9808;DHT22;4943;52.550;13.462;2022-08-03T13:32:32;32.30;64.80
9808;DHT22;4943;52.550;13.462;2022-08-03T13:35:02;32.30;64.60
9808;DHT22;4943;52.550;13.462;2022-08-03T13:37:31;32.40;64.10
9808;DHT22;4943;52.550;13.462;2022-08-03T13:39:59;32.30;63.90
9808;DHT22;4943;52.550;13.462;2022-08-03T13:42:32;32.30;63.90
9808;DHT22;4943;52.550;13.462;2022-08-03T13:45:01;32.30;64.30
9808;DHT22;4943;52.550;13.462;2022-08-03T13:47:30;32.30;64.40
9808;DHT22;4943;52.550;13.462;2022-08-03T13:49:58;32.40;64.70
9808;DHT22;4943;52.550;13.462;2022-08-03T13:52:33;32.50;64.80
9808;DHT22;4943;52.550;13.462;2022-08-03T13:55:02;32.60;64.70
9808;DHT22;4943;52.550;13.462;2022-08-03T13:57:31;32.70;64.10
9808;DHT22;4943;52.550;13.462;2022-08-03T14:00:19;32.70;63.90
9808;DHT22;4943;52.550;13.462;2022-08-03T14:02:58;32.80;63.90
9808;DHT22;4943;52.550;13.462;2022-08-03T14:05:42;32.90;64.10
9808;DHT22;4943;52.550;13.462;2022-08-03T14:08:11;32.90;64.70
9808;DHT22;4943;52.550;13.462;2022-08-03T14:10:41;33.00;63.90
9808;DHT22;4943;52.550;13.462;2022-08-03T14:13:11;33.00;63.80
9808;DHT22;4943;52.550;13.462;2022-08-03T14:15:44;33.10;63.80
9808;DHT22;4943;52.550;13.462;2022-08-03T14:18:17;33.10;63.70
9808;DHT22;4943;52.550;13.462;2022-08-03T14:21:00;33.20;63.70
9808;DHT22;4943;52.550;13.462;2022-08-03T14:23:34;33.20;63.20
9808;DHT22;4943;52.550;13.462;2022-08-03T14:26:04;33.20;63.10
9808;DHT22;4943;52.550;13.462;2022-08-03T14:28:32;33.20;62.60
9808;DHT22;4943;52.550;13.462;2022-08-03T14:31:01;33.20;62.80
9808;DHT22;4943;52.550;13.462;2022-08-03T14:33:34;33.10;62.90
9808;DHT22;4943;52.550;13.462;2022-08-03T14:36:02;33.10;63.00
9808;DHT22;4943;52.550;13.462;2022-08-03T14:38:31;33.20;63.00
9808;DHT22;4943;52.550;13.462;2022-08-03T14:41:00;33.20;62.90
9808;DHT22;4943;52.550;13.462;2022-08-03T14:43:28;33.20;63.00
9808;DHT22;4943;52.550;13.462;2022-08-03T14:46:00;33.20;63.10
9808;DHT22;4943;52.550;13.462;2022-08-03T14:48:28;33.20;62.90
9808;DHT22;4943;52.550;13.462;2022-08-03T14:51:16;33.20;62.80
9808;DHT22;4943;52.550;13.462;2022-08-03T14:53:45;33.20;62.90
9808;DHT22;4943;52.550;13.462;2022-08-03T14:56:14;33.30;63.20
9808;DHT22;4943;52.550;13.462;2022-08-03T14:58:42;33.40;63.30
9808;DHT22;4943;52.550;13.462;2022-08-03T15:01:11;33.40;63.00
9808;DHT22;4943;52.550;13.462;2022-08-03T15:03:59;33.50;62.80
9808;DHT22;4943;52.550;13.462;2022-08-03T15:06:27;33.60;62.50
9808;DHT22;4943;52.550;13.462;2022-08-03T15:08:55;33.60;62.50
9808;DHT22;4943;52.550;13.462;2022-08-03T15:11:45;33.70;62.50
9808;DHT22;4943;52.550;13.462;2022-08-03T15:14:13;33.70;62.30
9808;DHT22;4943;52.550;13.462;2022-08-03T15:16:41;33.80;62.50
9808;DHT22;4943;52.550;13.462;2022-08-03T15:19:15;33.90;62.40
9808;DHT22;4943;52.550;13.462;2022-08-03T15:22:03;34.00;62.00
9808;DHT22;4943;52.550;13.462;2022-08-03T15:24:34;34.00;61.80
9808;DHT22;4943;52.550;13.462;2022-08-03T15:27:04;34.10;61.30
9808;DHT22;4943;52.550;13.462;2022-08-03T15:29:32;34.30;61.60
9808;DHT22;4943;52.550;13.462;2022-08-03T15:32:20;34.40;61.20
9808;DHT22;4943;52.550;13.462;2022-08-03T15:34:48;34.50;60.70
9808;DHT22;4943;52.550;13.462;2022-08-03T15:37:18;34.60;61.80
9808;DHT22;4943;52.550;13.462;2022-08-03T15:39:47;34.70;60.20
9808;DHT22;4943;52.550;13.462;2022-08-03T15:42:28;34.90;60.90
9808;DHT22;4943;52.550;13.462;2022-08-03T15:44:57;35.10;61.10
9808;DHT22;4943;52.550;13.462;2022-08-03T15:47:26;35.30;62.20
9808;DHT22;4943;52.550;13.462;2022-08-03T15:49:54;35.60;61.30
9808;DHT22;4943;52.550;13.462;2022-08-03T15:52:22;35.80;60.50
9808;DHT22;4943;52.550;13.462;2022-08-03T15:54:51;36.10;60.20
9808;DHT22;4943;52.550;13.462;2022-08-03T15:57:19;36.30;60.10
9808;DHT22;4943;52.550;13.462;2022-08-03T15:59:49;36.50;59.80
9808;DHT22;4943;52.550;13.462;2022-08-03T16:02:17;36.60;58.60
9808;DHT22;4943;52.550;13.462;2022-08-03T16:04:46;36.70;59.00
9808;DHT22;4943;52.550;13.462;2022-08-03T16:07:14;36.80;59.20
9808;DHT22;4943;52.550;13.462;2022-08-03T16:10:02;36.90;59.20
9808;DHT22;4943;52.550;13.462;2022-08-03T16:12:31;37.10;59.10
9808;DHT22;4943;52.550;13.462;2022-08-03T16:15:00;37.20;58.80
9808;DHT22;4943;52.550;13.462;2022-08-03T16:17:29;37.40;59.00
9808;DHT22;4943;52.550;13.462;2022-08-03T16:19:57;37.50;58.80